Time;durP1;ratioP1;P1;durP2;ratioP2;P2;SDS_P1;SDS_P2;PMS_P1;PMS_P2;Temp;Humidity;BMP_temperature;BMP_pressure;BME280_temperature;BME280_humidity;BME280_pressure;Samples;Min_cycle;Max_cycle;Signal;HPM_P1;HPM_P2
2021/03/01 00:00:42;;;;;;;16.13;10.90;;;4.80;99.90;;;;;;4947956;29;20213;-76
2021/03/01 00:03:09;;;;;;;16.07;10.20;;;4.80;99.90;;;;;;4952388;29;20244;-74
2021/03/01 00:05:37;;;;;;;16.70;10.53;;;4.80;99.90;;;;;;4949073;28;20221;-75
2021/03/01 00:08:04;;;;;;;16.63;10.03;;;4.80;99.90;;;;;;4956090;29;20217;-75
2021/03/01 00:10:31;;;;;;;14.57;10.47;;;4.80;99.90;;;;;;4950170;28;20264;-75
2021/03/01 00:12:57;;;;;;;15.67;10.47;;;4.80;99.90;;;;;;4951522;28;20229;-75
2021/03/01 00:15:25;;;;;;;14.47;10.43;;;4.80;99.90;;;;;;4947026;28;20244;-76
2021/03/01 00:17:51;;;;;;;15.70;11.33;;;4.90;99.90;;;;;;4948745;29;20245;-75
2021/03/01 00:20:18;;;;;;;16.67;11.40;;;4.90;99.90;;;;;;4944508;28;20361;-74
2021/03/01 00:22:46;;;;;;;15.20;10.20;;;4.90;99.90;;;;;;4951105;28;20205;-74
2021/03/01 00:25:14;;;;;;;15.50;10.43;;;4.90;99.90;;;;;;4955002;28;20232;-75
2021/03/01 00:27:40;;;;;;;15.37;10.57;;;4.90;99.90;;;;;;4954754;28;20244;-75
2021/03/01 00:30:08;;;;;;;16.50;11.17;;;4.90;99.90;;;;;;4951608;28;20220;-75
2021/03/01 00:32:37;;;;;;;16.37;10.57;;;4.80;99.90;;;;;;4949609;28;20229;-77
2021/03/01 00:35:06;;;;;;;15.27;10.63;;;4.90;99.90;;;;;;4949776;29;20583;-76
2021/03/01 00:37:32;;;;;;;17.63;10.47;;;4.90;99.90;;;;;;4949841;29;20220;-75
2021/03/01 00:39:59;;;;;;;15.77;10.40;;;4.90;99.90;;;;;;4953288;28;20237;-75
2021/03/01 00:42:25;;;;;;;17.13;11.13;;;4.90;99.90;;;;;;4950606;28;20603;-75
2021/03/01 00:44:52;;;;;;;13.93;10.30;;;4.90;99.90;;;;;;4947563;28;20208;-75
2021/03/01 00:47:19;;;;;;;14.40;9.70;;;4.90;99.90;;;;;;4953185;28;20313;-75
2021/03/01 00:49:45;;;;;;;15.60;10.67;;;4.90;99.90;;;;;;4955446;28;20292;-75
2021/03/01 00:52:12;;;;;;;15.53;10.20;;;4.90;99.90;;;;;;4943285;28;20225;-74
2021/03/01 00:54:38;;;;;;;14.37;10.00;;;4.90;99.90;;;;;;4947623;28;20310;-76
2021/03/01 00:57:06;;;;;;;17.17;10.77;;;4.90;99.90;;;;;;4942979;29;20206;-75
2021/03/01 00:59:32;;;;;;;17.23;11.33;;;4.90;99.90;;;;;;4949414;29;20216;-74
2021/03/01 01:01:59;;;;;;;15.27;9.93;;;4.90;99.90;;;;;;4948434;28;20228;-74
2021/03/01 01:04:25;;;;;;;16.73;10.40;;;4.80;99.90;;;;;;4950797;28;20284;-76
2021/03/01 01:06:52;;;;;;;13.93;9.77;;;4.80;99.90;;;;;;4949271;28;20280;-75
2021/03/01 01:09:18;;;;;;;15.03;10.57;;;4.80;99.90;;;;;;4949853;29;20309;-74
2021/03/01 01:11:45;;;;;;;16.83;10.70;;;4.80;99.90;;;;;;4949078;29;20217;-75
2021/03/01 01:14:12;;;;;;;13.43;9.90;;;4.80;99.90;;;;;;4949065;28;20316;-75
2021/03/01 01:16:39;;;;;;;16.63;10.37;;;4.80;99.90;;;;;;4950794;29;20211;-75
2021/03/01 01:19:06;;;;;;;18.37;11.13;;;4.80;99.90;;;;;;4949981;28;20306;-75
2021/03/01 01:21:33;;;;;;;16.50;9.90;;;4.80;99.90;;;;;;4953443;29;20586;-74
2021/03/01 01:23:59;;;;;;;18.57;10.90;;;4.80;99.90;;;;;;4954527;28;20292;-74
2021/03/01 01:26:25;;;;;;;19.57;10.77;;;4.90;99.90;;;;;;4950091;28;20268;-75
2021/03/01 01:28:52;;;;;;;16.67;10.73;;;4.80;99.90;;;;;;4951553;28;20309;-76
2021/03/01 01:31:19;;;;;;;15.90;10.37;;;4.90;99.90;;;;;;4952101;28;20221;-75
2021/03/01 01:33:46;;;;;;;19.73;11.03;;;4.90;99.90;;;;;;4951435;29;20379;-74
2021/03/01 01:36:12;;;;;;;15.70;10.57;;;4.90;99.90;;;;;;4950862;28;20289;-75
2021/03/01 01:38:38;;;;;;;16.33;10.97;;;4.90;99.90;;;;;;4951963;29;20213;-75
2021/03/01 01:41:05;;;;;;;15.13;10.57;;;4.90;99.90;;;;;;4950381;29;20361;-76
2021/03/01 01:43:31;;;;;;;18.67;11.63;;;4.90;99.90;;;;;;4950446;28;20236;-75
2021/03/01 01:45:58;;;;;;;17.50;11.73;;;5.00;99.90;;;;;;4951819;29;20355;-74
2021/03/01 01:48:25;;;;;;;18.83;11.30;;;4.80;99.90;;;;;;4949009;28;20273;-74
2021/03/01 01:50:52;;;;;;;17.03;11.90;;;4.80;99.90;;;;;;4945747;29;20206;-74
2021/03/01 01:53:18;;;;;;;17.03;11.57;;;4.80;99.90;;;;;;4953915;28;20593;-75
2021/03/01 01:55:45;;;;;;;18.93;12.17;;;4.80;99.90;;;;;;4956280;28;20652;-75
2021/03/01 01:58:12;;;;;;;18.43;11.97;;;4.80;99.90;;;;;;4954424;29;20345;-74
2021/03/01 02:00:45;;;;;;;14.60;10.80;;;4.80;99.90;;;;;;4950560;28;20213;-75
2021/03/01 02:03:34;;;;;;;17.50;11.33;;;4.80;99.90;;;;;;4953763;29;20293;-75
2021/03/01 02:06:04;;;;;;;17.23;11.80;;;4.90;99.90;;;;;;4953544;29;20581;-75
2021/03/01 02:08:37;;;;;;;19.00;11.50;;;4.80;99.90;;;;;;4953304;28;20706;-75
2021/03/01 02:11:11;;;;;;;20.33;12.80;;;4.80;99.90;;;;;;4956422;29;20203;-74
2021/03/01 02:13:44;;;;;;;19.63;13.27;;;4.90;99.90;;;;;;4953452;28;20225;-75
2021/03/01 02:16:17;;;;;;;19.73;13.33;;;4.80;99.90;;;;;;4954737;29;20197;-75
2021/03/01 02:18:45;;;;;;;17.83;12.37;;;4.80;99.90;;;;;;4952903;29;20300;-75
2021/03/01 02:21:14;;;;;;;19.33;13.00;;;4.80;99.90;;;;;;4952462;29;20217;-74
2021/03/01 02:23:43;;;;;;;22.00;13.17;;;4.80;99.90;;;;;;4954893;28;20205;-74
2021/03/01 02:26:15;;;;;;;23.00;15.70;;;4.80;99.90;;;;;;4952397;28;20528;-74
2021/03/01 02:28:45;;;;;;;19.80;13.63;;;4.80;99.90;;;;;;4953875;29;20209;-75
2021/03/01 02:31:13;;;;;;;20.00;13.63;;;4.80;99.90;;;;;;4955690;29;20205;-74
2021/03/01 02:33:43;;;;;;;22.87;15.03;;;4.80;99.90;;;;;;4949820;28;20273;-75
2021/03/01 02:36:15;;;;;;;19.67;13.43;;;4.70;99.90;;;;;;4950927;29;20241;-74
2021/03/01 02:38:44;;;;;;;18.23;12.60;;;4.70;99.90;;;;;;4955064;28;20213;-74
2021/03/01 02:41:12;;;;;;;17.37;11.77;;;4.70;99.90;;;;;;4953505;29;20296;-74
2021/03/01 02:43:40;;;;;;;15.57;11.17;;;4.70;99.90;;;;;;4952640;28;20277;-74
2021/03/01 02:46:07;;;;;;;19.73;11.33;;;4.70;99.90;;;;;;4953643;28;20609;-74
2021/03/01 02:48:36;;;;;;;13.83;9.90;;;4.80;99.90;;;;;;4952890;28;20237;-73
2021/03/01 02:51:05;;;;;;;14.03;9.67;;;4.80;99.90;;;;;;4953035;28;20209;-75
2021/03/01 02:53:32;;;;;;;13.77;9.37;;;4.80;99.90;;;;;;4954867;28;20310;-75
2021/03/01 02:56:00;;;;;;;12.80;9.20;;;4.80;99.90;;;;;;4953666;28;20217;-74
2021/03/01 02:58:29;;;;;;;13.87;8.30;;;4.80;99.90;;;;;;4951332;28;20299;-74
2021/03/01 03:00:57;;;;;;;13.20;9.13;;;4.70;99.90;;;;;;4951468;28;20299;-75
2021/03/01 03:03:25;;;;;;;15.33;9.63;;;4.70;99.90;;;;;;4954684;29;20299;-74
2021/03/01 03:05:53;;;;;;;14.87;10.33;;;4.70;99.90;;;;;;4948112;29;20217;-75
2021/03/01 03:08:20;;;;;;;14.93;10.10;;;4.70;99.90;;;;;;4953713;29;20249;-75
2021/03/01 03:10:49;;;;;;;14.27;9.10;;;4.60;99.90;;;;;;4950589;28;20235;-74
2021/03/01 03:13:18;;;;;;;14.60;10.40;;;4.60;99.90;;;;;;4947450;28;20284;-75
2021/03/01 03:15:46;;;;;;;14.57;10.53;;;4.70;99.90;;;;;;4943156;28;20305;-74
2021/03/01 03:18:14;;;;;;;12.70;9.63;;;4.70;99.90;;;;;;4950236;29;20209;-74
2021/03/01 03:20:41;;;;;;;15.47;11.27;;;4.70;99.90;;;;;;4953901;28;20461;-74
2021/03/01 03:23:08;;;;;;;15.17;10.83;;;4.80;99.90;;;;;;4953637;28;20288;-76
2021/03/01 03:25:35;;;;;;;17.70;12.07;;;4.80;99.90;;;;;;4952002;28;20681;-74
2021/03/01 03:28:03;;;;;;;17.33;11.87;;;4.80;99.90;;;;;;4951030;28;20292;-75
2021/03/01 03:30:31;;;;;;;18.53;12.67;;;4.80;99.90;;;;;;4947697;28;20337;-74
2021/03/01 03:32:58;;;;;;;19.93;12.17;;;4.80;99.90;;;;;;4943955;28;20238;-75
2021/03/01 03:35:26;;;;;;;16.43;11.60;;;4.90;99.90;;;;;;4949069;29;20209;-74
2021/03/01 03:37:58;;;;;;;16.53;10.87;;;4.90;99.90;;;;;;4953743;28;20220;-75
2021/03/01 03:40:26;;;;;;;20.87;11.27;;;4.90;99.90;;;;;;4951710;28;20205;-75
2021/03/01 03:42:55;;;;;;;17.37;11.53;;;4.90;99.90;;;;;;4955630;28;20249;-74
2021/03/01 03:45:22;;;;;;;18.63;11.87;;;4.90;99.90;;;;;;4955368;28;20292;-75
2021/03/01 03:47:52;;;;;;;16.83;11.07;;;4.90;99.90;;;;;;4953255;28;20246;-74
2021/03/01 03:50:21;;;;;;;18.03;12.03;;;5.00;99.90;;;;;;4954414;28;20220;-75
2021/03/01 03:52:49;;;;;;;16.80;11.13;;;5.00;99.90;;;;;;4953072;29;20235;-74
2021/03/01 03:55:19;;;;;;;20.27;11.33;;;5.00;99.90;;;;;;4954640;28;20209;-74
2021/03/01 03:57:51;;;;;;;15.93;12.03;;;5.00;99.90;;;;;;4956602;29;20754;-74
2021/03/01 04:00:19;;;;;;;14.50;10.83;;;5.00;99.90;;;;;;4954394;29;20228;-75
2021/03/01 04:02:46;;;;;;;19.03;10.70;;;5.00;99.90;;;;;;4951996;29;20204;-74
2021/03/01 04:05:15;;;;;;;15.27;11.13;;;5.00;99.90;;;;;;4949039;28;20736;-74
2021/03/01 04:07:44;;;;;;;17.13;10.13;;;5.00;99.90;;;;;;4947009;29;20293;-74
2021/03/01 04:10:12;;;;;;;13.47;9.57;;;5.00;99.90;;;;;;4956795;29;20647;-75
2021/03/01 04:12:40;;;;;;;14.40;9.87;;;5.00;99.90;;;;;;4950068;28;20233;-75
2021/03/01 04:15:10;;;;;;;18.50;10.60;;;5.00;99.90;;;;;;4951153;28;20244;-75
2021/03/01 04:17:40;;;;;;;14.77;10.20;;;4.90;99.90;;;;;;4946927;29;20205;-74
2021/03/01 04:20:09;;;;;;;14.40;9.47;;;4.80;99.90;;;;;;4948631;29;20275;-74
2021/03/01 04:22:37;;;;;;;13.70;9.10;;;4.80;99.90;;;;;;4955011;28;20215;-75
2021/03/01 04:25:06;;;;;;;14.07;9.17;;;4.90;99.90;;;;;;4947187;28;20213;-74
2021/03/01 04:27:37;;;;;;;14.80;9.23;;;4.90;99.90;;;;;;4951007;28;20662;-74
2021/03/01 04:30:06;;;;;;;12.63;8.30;;;4.80;99.90;;;;;;4951058;28;20690;-74
2021/03/01 04:32:36;;;;;;;11.60;7.93;;;4.80;99.90;;;;;;4951622;28;20233;-75
2021/03/01 04:35:04;;;;;;;12.03;7.83;;;4.80;99.90;;;;;;4953778;28;20205;-74
2021/03/01 04:37:31;;;;;;;11.40;8.10;;;4.70;99.90;;;;;;4953174;28;20213;-75
2021/03/01 04:39:59;;;;;;;13.77;7.43;;;4.80;99.90;;;;;;4950182;29;20301;-74
2021/03/01 04:42:27;;;;;;;14.47;8.43;;;4.70;99.90;;;;;;4951909;28;20340;-75
2021/03/01 04:44:55;;;;;;;13.83;8.30;;;4.80;99.90;;;;;;4954219;28;20309;-75
2021/03/01 04:47:21;;;;;;;11.93;7.90;;;4.80;99.90;;;;;;4953527;28;20288;-75
2021/03/01 04:49:49;;;;;;;13.00;8.33;;;4.80;99.90;;;;;;4949789;28;20219;-76
2021/03/01 04:52:15;;;;;;;14.37;8.30;;;4.80;99.90;;;;;;4953635;28;20283;-75
2021/03/01 04:54:43;;;;;;;14.07;8.53;;;4.70;99.90;;;;;;4950975;28;20620;-75
2021/03/01 04:57:12;;;;;;;13.43;7.80;;;4.70;99.90;;;;;;4951727;28;20301;-75
2021/03/01 04:59:40;;;;;;;14.47;8.07;;;4.70;99.90;;;;;;4948910;28;20220;-74
2021/03/01 05:02:06;;;;;;;10.63;7.37;;;4.80;99.90;;;;;;4949520;28;20212;-74
2021/03/01 05:04:33;;;;;;;13.53;6.90;;;4.70;99.90;;;;;;4953420;29;20210;-75
2021/03/01 05:07:00;;;;;;;13.30;6.93;;;4.70;99.90;;;;;;4948290;28;20201;-74
2021/03/01 05:09:27;;;;;;;10.77;6.77;;;4.70;99.90;;;;;;4953975;28;20631;-75
2021/03/01 05:11:53;;;;;;;13.17;8.17;;;4.70;99.90;;;;;;4950618;28;20292;-75
2021/03/01 05:14:20;;;;;;;18.13;10.30;;;4.60;99.90;;;;;;4952708;28;20225;-75
2021/03/01 05:16:47;;;;;;;19.13;10.87;;;4.60;99.90;;;;;;4945965;29;20664;-75
2021/03/01 05:19:13;;;;;;;21.03;12.10;;;4.60;99.90;;;;;;4952136;28;20367;-74
2021/03/01 05:21:39;;;;;;;20.30;12.70;;;4.50;99.90;;;;;;4953705;28;20237;-75
2021/03/01 05:24:07;;;;;;;20.50;12.37;;;4.50;99.90;;;;;;4949891;29;20305;-75
2021/03/01 05:26:33;;;;;;;20.13;11.87;;;4.50;99.90;;;;;;4950114;28;20259;-75
2021/03/01 05:29:00;;;;;;;19.07;12.63;;;4.50;99.90;;;;;;4949801;28;20293;-75
2021/03/01 05:31:27;;;;;;;19.30;11.67;;;4.50;99.90;;;;;;4953826;28;20205;-74
2021/03/01 05:33:53;;;;;;;17.13;11.13;;;4.60;99.90;;;;;;4952144;28;20245;-75
2021/03/01 05:36:20;;;;;;;19.77;11.27;;;4.60;99.90;;;;;;4951721;28;20218;-75
2021/03/01 05:38:46;;;;;;;19.57;11.33;;;4.60;99.90;;;;;;4948799;28;20233;-75
2021/03/01 05:41:13;;;;;;;18.90;11.57;;;4.50;99.90;;;;;;4951807;29;20292;-76
2021/03/01 05:43:41;;;;;;;17.40;10.77;;;4.50;99.90;;;;;;4951893;28;20308;-74
2021/03/01 05:46:08;;;;;;;15.73;11.13;;;4.50;99.90;;;;;;4951095;28;20209;-75
2021/03/01 05:48:38;;;;;;;19.00;12.53;;;4.50;99.90;;;;;;4953362;28;20651;-76
2021/03/01 05:51:05;;;;;;;17.77;11.07;;;4.50;99.90;;;;;;4949046;28;20213;-75
2021/03/01 05:53:32;;;;;;;18.53;11.03;;;4.50;99.90;;;;;;4949194;29;20323;-73
2021/03/01 05:55:59;;;;;;;16.47;10.73;;;4.50;99.90;;;;;;4950041;29;20227;-74
2021/03/01 05:58:27;;;;;;;17.87;11.27;;;4.60;99.90;;;;;;4951495;28;20214;-78
2021/03/01 06:00:55;;;;;;;16.50;10.53;;;4.50;99.90;;;;;;4949984;28;20226;-77
2021/03/01 06:03:22;;;;;;;17.17;9.40;;;4.60;99.90;;;;;;4944112;28;20288;-77
2021/03/01 06:05:53;;;;;;;15.33;8.90;;;4.50;99.90;;;;;;4942847;28;20210;-76
2021/03/01 06:08:20;;;;;;;15.60;8.90;;;4.50;99.90;;;;;;4943422;28;20213;-75
2021/03/01 06:10:46;;;;;;;16.80;9.87;;;4.40;99.90;;;;;;4948156;28;20325;-76
2021/03/01 06:13:13;;;;;;;13.30;8.60;;;4.30;99.90;;;;;;4948986;29;20233;-76
2021/03/01 06:15:40;;;;;;;14.57;8.47;;;4.30;99.90;;;;;;4948747;28;20300;-75
2021/03/01 06:18:08;;;;;;;11.33;7.60;;;4.30;99.90;;;;;;4950611;29;20235;-77
2021/03/01 06:20:35;;;;;;;13.63;8.67;;;4.30;99.90;;;;;;4954400;28;20323;-78
2021/03/01 06:23:04;;;;;;;13.83;7.80;;;4.30;99.90;;;;;;4949467;29;20265;-77
2021/03/01 06:25:31;;;;;;;16.00;8.67;;;4.30;99.90;;;;;;4953874;29;20219;-77
2021/03/01 06:27:59;;;;;;;11.90;7.60;;;4.40;99.90;;;;;;4948736;29;20213;-77
2021/03/01 06:30:27;;;;;;;12.67;8.33;;;4.50;99.90;;;;;;4947166;28;20217;-78
2021/03/01 06:33:13;;;;;;;12.67;7.87;;;4.60;99.90;;;;;;4951284;28;20585;-78
2021/03/01 06:35:45;;;;;;;15.10;8.57;;;4.60;99.90;;;;;;4946634;29;20228;-78
2021/03/01 06:38:24;;;;;;;11.50;8.37;;;4.50;99.90;;;;;;4946769;29;20202;-81
2021/03/01 06:41:11;;;;;;;15.07;7.83;;;4.60;99.90;;;;;;4960350;28;20228;-79
2021/03/01 06:43:42;;;;;;;13.23;8.57;;;4.50;99.90;;;;;;4960938;29;20218;-79
2021/03/01 06:46:13;;;;;;;12.53;8.30;;;4.50;99.90;;;;;;4963783;29;20202;-78
2021/03/01 06:48:41;;;;;;;11.93;8.43;;;4.60;99.90;;;;;;4958388;29;20217;-76
2021/03/01 06:51:09;;;;;;;13.07;8.40;;;4.60;99.90;;;;;;4953767;28;20950;-79
2021/03/01 06:53:40;;;;;;;11.97;7.73;;;4.70;99.90;;;;;;4951031;28;20238;-80
2021/03/01 06:56:08;;;;;;;11.60;8.20;;;4.70;99.90;;;;;;4954266;28;20546;-76
2021/03/01 06:58:38;;;;;;;13.00;8.57;;;4.70;99.90;;;;;;4957051;28;20268;-77
2021/03/01 07:01:10;;;;;;;15.20;9.23;;;4.70;99.90;;;;;;4951459;28;20594;-78
2021/03/01 07:03:38;;;;;;;11.70;7.93;;;4.70;99.90;;;;;;4953727;28;20261;-77
2021/03/01 07:06:06;;;;;;;13.47;8.50;;;4.70;99.90;;;;;;4952068;29;20218;-78
2021/03/01 07:08:46;;;;;;;13.90;8.33;;;4.70;99.90;;;;;;4954365;29;20619;-77
2021/03/01 07:11:28;;;;;;;13.43;8.33;;;4.70;99.90;;;;;;4950320;29;20210;-74
2021/03/01 07:13:59;;;;;;;11.20;8.43;;;4.60;99.90;;;;;;4951124;28;20269;-75
2021/03/01 07:16:26;;;;;;;13.20;8.93;;;4.60;99.90;;;;;;4953046;28;20198;-75
2021/03/01 07:18:53;;;;;;;13.60;9.10;;;4.70;99.90;;;;;;4950193;28;20261;-73
2021/03/01 07:21:21;;;;;;;11.33;7.93;;;4.70;99.90;;;;;;4947390;29;20296;-76
2021/03/01 07:23:49;;;;;;;13.83;9.00;;;4.70;99.90;;;;;;4953394;29;20297;-72
2021/03/01 07:26:17;;;;;;;12.37;8.00;;;4.70;99.90;;;;;;4954350;28;20726;-76
2021/03/01 07:28:49;;;;;;;12.13;8.00;;;4.80;99.90;;;;;;4953181;28;20268;-76
2021/03/01 07:31:19;;;;;;;13.77;8.47;;;4.80;99.90;;;;;;4947451;28;20304;-76
2021/03/01 07:33:45;;;;;;;12.00;7.87;;;4.80;99.90;;;;;;4952752;28;20225;-75
2021/03/01 07:36:12;;;;;;;13.90;8.83;;;4.80;99.90;;;;;;4946030;28;20581;-75
2021/03/01 07:38:43;;;;;;;15.60;10.40;;;4.80;99.90;;;;;;4948040;29;20218;-76
2021/03/01 07:41:10;;;;;;;13.83;8.77;;;4.80;99.90;;;;;;4946875;28;20292;-71
2021/03/01 07:43:41;;;;;;;14.93;8.63;;;4.80;99.90;;;;;;4955052;28;20324;-76
2021/03/01 07:46:08;;;;;;;18.10;11.50;;;4.80;99.90;;;;;;4952596;28;20201;-74
2021/03/01 07:48:36;;;;;;;15.93;9.07;;;4.80;99.90;;;;;;4956698;28;20731;-74
2021/03/01 07:51:03;;;;;;;13.87;8.20;;;4.80;99.90;;;;;;4945949;29;20185;-77
2021/03/01 07:53:46;;;;;;;14.10;9.20;;;4.80;99.90;;;;;;4954739;28;20271;-77
2021/03/01 07:56:50;;;;;;;13.93;8.37;;;4.90;99.90;;;;;;4942508;28;20234;-74
2021/03/01 07:59:33;;;;;;;13.30;8.80;;;4.90;99.90;;;;;;4937766;29;20209;-73
2021/03/01 08:02:14;;;;;;;18.33;10.33;;;4.90;99.90;;;;;;4942629;28;20704;-73
2021/03/01 08:04:41;;;;;;;16.63;10.07;;;5.00;99.90;;;;;;4946909;28;20285;-73
2021/03/01 08:07:07;;;;;;;15.87;10.70;;;4.90;99.90;;;;;;4947029;28;20296;-71
2021/03/01 08:09:52;;;;;;;15.13;9.40;;;5.00;99.90;;;;;;4947821;28;20221;-73
2021/03/01 08:12:51;;;;;;;15.30;9.27;;;5.00;99.90;;;;;;4952488;28;20213;-74
2021/03/01 08:15:31;;;;;;;15.80;9.93;;;5.00;99.90;;;;;;4948883;28;20224;-73
2021/03/01 08:17:58;;;;;;;17.17;11.60;;;5.00;99.90;;;;;;4946559;29;20197;-74
2021/03/01 08:20:30;;;;;;;19.97;11.17;;;5.00;99.90;;;;;;4950771;29;20268;-73
2021/03/01 08:23:31;;;;;;;17.47;10.07;;;5.00;99.90;;;;;;4950628;29;20690;-75
2021/03/01 08:25:59;;;;;;;16.07;9.27;;;4.90;99.90;;;;;;4951294;28;20221;-75
2021/03/01 08:28:59;;;;;;;14.33;9.53;;;4.90;99.90;;;;;;4945729;28;20214;-75
2021/03/01 08:31:38;;;;;;;15.63;9.50;;;4.80;99.90;;;;;;4943001;29;20556;-72
2021/03/01 08:34:28;;;;;;;16.47;10.30;;;4.80;99.90;;;;;;4946383;29;20654;-72
2021/03/01 08:36:56;;;;;;;15.90;8.70;;;4.80;99.90;;;;;;4948068;29;20299;-72
2021/03/01 08:39:58;;;;;;;14.37;8.83;;;4.70;99.90;;;;;;4946464;28;20590;-72
2021/03/01 08:42:54;;;;;;;13.07;8.50;;;4.80;99.90;;;;;;4950076;28;20202;-72
2021/03/01 08:45:36;;;;;;;11.17;7.80;;;4.80;99.90;;;;;;4945932;29;20240;-72
2021/03/01 08:48:05;;;;;;;13.73;7.90;;;4.70;99.90;;;;;;4944802;29;20213;-71
2021/03/01 08:50:34;;;;;;;11.67;8.30;;;4.70;99.90;;;;;;4939935;29;20301;-72
2021/03/01 08:53:00;;;;;;;13.13;7.90;;;4.70;99.90;;;;;;4941472;29;20236;-70
2021/03/01 08:55:27;;;;;;;14.43;9.10;;;4.70;99.90;;;;;;4941501;28;20296;-72
2021/03/01 08:58:12;;;;;;;13.07;8.07;;;4.70;99.90;;;;;;4941401;28;20213;-75
2021/03/01 09:00:49;;;;;;;14.87;8.73;;;4.70;99.90;;;;;;4938825;29;20214;-72
2021/03/01 09:03:25;;;;;;;15.83;7.77;;;4.70;99.90;;;;;;4937012;29;20217;-71
2021/03/01 09:05:53;;;;;;;14.93;8.33;;;4.80;99.90;;;;;;4940512;29;20221;-73
2021/03/01 09:08:25;;;;;;;11.17;7.30;;;4.90;99.90;;;;;;4939920;29;20260;-72
2021/03/01 09:10:53;;;;;;;12.13;7.57;;;4.80;99.90;;;;;;4944529;28;20221;-73
2021/03/01 09:13:21;;;;;;;13.07;8.23;;;4.70;99.90;;;;;;4944247;29;20312;-71
2021/03/01 09:15:48;;;;;;;14.73;8.40;;;4.70;99.90;;;;;;4945918;29;20236;-73
2021/03/01 09:18:16;;;;;;;11.93;7.10;;;4.80;99.90;;;;;;4946140;29;20259;-72
2021/03/01 09:20:50;;;;;;;10.97;7.43;;;4.80;99.90;;;;;;4945041;28;20368;-72
2021/03/01 09:23:42;;;;;;;13.27;7.87;;;4.80;99.90;;;;;;4939747;28;20194;-73
2021/03/01 09:26:20;;;;;;;12.67;8.37;;;4.90;99.90;;;;;;4943496;28;20204;-75
2021/03/01 09:28:47;;;;;;;13.03;8.37;;;4.90;99.90;;;;;;4937662;29;20220;-73
2021/03/01 09:31:16;;;;;;;14.20;8.37;;;4.90;99.90;;;;;;4940659;28;20214;-73
2021/03/01 09:33:44;;;;;;;13.50;8.63;;;4.90;99.90;;;;;;4942961;29;20324;-73
2021/03/01 09:36:13;;;;;;;14.47;8.70;;;4.90;99.90;;;;;;4946109;29;20214;-72
2021/03/01 09:38:41;;;;;;;13.43;9.07;;;5.00;99.90;;;;;;4942771;29;20675;-73
2021/03/01 09:41:09;;;;;;;12.53;8.20;;;5.00;99.90;;;;;;4940905;29;20209;-74
2021/03/01 09:43:37;;;;;;;15.03;8.83;;;5.00;99.90;;;;;;4942613;29;20206;-73
2021/03/01 09:46:04;;;;;;;16.27;9.17;;;5.10;99.90;;;;;;4942456;29;20569;-73
2021/03/01 09:48:37;;;;;;;13.53;8.50;;;5.10;99.90;;;;;;4945081;29;20297;-73
2021/03/01 09:51:07;;;;;;;14.33;9.10;;;5.20;99.90;;;;;;4943786;29;20198;-72
2021/03/01 09:53:35;;;;;;;14.70;8.70;;;5.20;99.90;;;;;;4945490;28;20237;-74
2021/03/01 09:56:03;;;;;;;14.53;9.03;;;5.20;99.90;;;;;;4948108;28;20237;-71
2021/03/01 09:58:31;;;;;;;14.37;8.57;;;5.20;99.90;;;;;;4947639;28;20751;-71
2021/03/01 10:01:12;;;;;;;16.07;8.80;;;5.30;99.90;;;;;;4952061;29;20272;-72
2021/03/01 10:03:40;;;;;;;15.50;9.17;;;5.40;99.90;;;;;;4942544;29;20214;-73
2021/03/01 10:06:07;;;;;;;14.13;8.63;;;5.30;99.90;;;;;;4945894;29;20212;-73
2021/03/01 10:08:35;;;;;;;14.27;8.20;;;5.30;99.90;;;;;;4949942;28;20249;-73
2021/03/01 10:11:02;;;;;;;13.60;8.67;;;5.30;99.90;;;;;;4938199;29;20240;-72
2021/03/01 10:13:32;;;;;;;12.30;8.70;;;5.30;99.90;;;;;;4946306;28;20259;-72
2021/03/01 10:16:00;;;;;;;14.63;8.27;;;5.40;99.90;;;;;;4941278;29;20210;-73
2021/03/01 10:18:29;;;;;;;12.97;8.47;;;5.40;99.90;;;;;;4949006;28;20248;-74
2021/03/01 10:21:02;;;;;;;15.53;8.03;;;5.40;99.90;;;;;;4948598;28;20242;-76
2021/03/01 10:23:37;;;;;;;11.60;8.07;;;5.40;99.90;;;;;;4948806;29;20802;-75
2021/03/01 10:26:15;;;;;;;14.13;8.83;;;5.40;99.90;;;;;;4946518;28;20642;-76
2021/03/01 10:28:46;;;;;;;13.43;8.20;;;5.40;99.90;;;;;;4947327;29;20229;-75
2021/03/01 10:31:15;;;;;;;17.53;9.20;;;5.50;99.90;;;;;;4959313;29;20573;-75
2021/03/01 10:33:52;;;;;;;14.40;8.47;;;5.60;99.90;;;;;;4952433;29;20317;-75
2021/03/01 10:36:19;;;;;;;15.17;8.97;;;5.60;99.90;;;;;;4948536;29;20269;-74
2021/03/01 10:38:58;;;;;;;13.67;8.63;;;5.60;99.90;;;;;;4944480;29;20229;-76
2021/03/01 10:41:26;;;;;;;15.27;9.23;;;5.50;99.90;;;;;;4957889;29;20244;-76
2021/03/01 10:43:56;;;;;;;15.73;10.53;;;5.50;99.90;;;;;;4943629;29;20713;-75
2021/03/01 10:46:34;;;;;;;17.37;9.97;;;5.50;99.90;;;;;;4955390;29;20210;-75
2021/03/01 10:49:02;;;;;;;14.63;8.63;;;5.50;99.90;;;;;;4950448;29;20212;-76
2021/03/01 10:51:28;;;;;;;14.23;8.67;;;5.50;99.90;;;;;;4943130;29;20237;-76
2021/03/01 10:53:56;;;;;;;13.40;9.03;;;5.50;99.90;;;;;;4945719;29;20303;-75
2021/03/01 10:56:22;;;;;;;12.97;7.73;;;5.40;99.90;;;;;;4960271;28;20224;-74
2021/03/01 10:58:50;;;;;;;13.43;8.43;;;5.40;99.90;;;;;;4960251;28;20216;-74
2021/03/01 11:01:17;;;;;;;13.10;8.83;;;5.50;99.90;;;;;;4951530;28;20214;-74
2021/03/01 11:03:45;;;;;;;19.80;10.20;;;5.50;99.90;;;;;;4948053;29;20206;-74
2021/03/01 11:06:12;;;;;;;13.03;8.53;;;5.50;99.90;;;;;;4955628;29;20246;-76
2021/03/01 11:08:38;;;;;;;15.43;9.10;;;5.50;99.90;;;;;;4955715;28;20217;-76
2021/03/01 11:11:06;;;;;;;15.60;9.40;;;5.50;99.90;;;;;;4958649;28;20709;-75
2021/03/01 11:13:35;;;;;;;18.43;9.90;;;5.50;99.90;;;;;;4963016;29;20240;-74
2021/03/01 11:16:01;;;;;;;17.73;9.33;;;5.50;99.90;;;;;;4957156;28;20214;-76
2021/03/01 11:18:31;;;;;;;14.73;8.87;;;5.50;99.90;;;;;;4956895;29;20256;-75
2021/03/01 11:20:59;;;;;;;14.97;8.73;;;5.50;99.90;;;;;;4952267;28;20272;-76
2021/03/01 11:23:25;;;;;;;16.80;9.40;;;5.60;99.90;;;;;;4955278;28;20299;-73
2021/03/01 11:25:52;;;;;;;16.30;9.80;;;5.60;99.90;;;;;;4954860;28;20620;-75
2021/03/01 11:28:20;;;;;;;13.80;8.23;;;5.70;99.90;;;;;;4957262;28;20564;-74
2021/03/01 11:30:47;;;;;;;17.03;9.93;;;5.70;99.90;;;;;;4945629;28;20217;-76
2021/03/01 11:33:13;;;;;;;14.50;9.47;;;5.70;99.90;;;;;;4951051;28;20230;-74
2021/03/01 11:35:40;;;;;;;15.63;9.03;;;5.80;99.90;;;;;;4947751;28;20293;-74
2021/03/01 11:38:06;;;;;;;17.33;9.47;;;5.80;99.90;;;;;;4947233;28;20282;-74
2021/03/01 11:40:33;;;;;;;17.23;10.13;;;5.80;99.90;;;;;;4950311;29;20377;-75
2021/03/01 11:43:00;;;;;;;15.53;10.47;;;5.80;99.90;;;;;;4953405;28;20206;-77
2021/03/01 11:45:30;;;;;;;15.77;10.63;;;5.80;99.90;;;;;;4944959;29;20217;-78
2021/03/01 11:47:56;;;;;;;16.57;10.20;;;5.80;99.90;;;;;;4954941;28;20217;-78
2021/03/01 11:50:22;;;;;;;15.90;10.70;;;5.80;99.90;;;;;;4948404;28;20647;-79
2021/03/01 11:52:49;;;;;;;20.70;10.73;;;5.80;99.90;;;;;;4959004;28;20267;-80
2021/03/01 11:55:16;;;;;;;18.73;9.77;;;5.80;99.90;;;;;;4954619;28;20297;-81
2021/03/01 11:57:43;;;;;;;17.43;11.37;;;5.80;99.90;;;;;;4956647;28;20210;-79
2021/03/01 12:00:10;;;;;;;19.50;11.23;;;5.70;99.90;;;;;;4948982;28;20288;-78
2021/03/01 12:02:37;;;;;;;21.00;12.83;;;5.80;99.90;;;;;;4957380;28;20245;-71
2021/03/01 12:05:05;;;;;;;22.67;13.77;;;5.70;99.90;;;;;;4956278;28;20213;-78
2021/03/01 12:07:31;;;;;;;23.97;14.10;;;5.70;99.90;;;;;;4956376;28;20214;-79
2021/03/01 12:09:57;;;;;;;20.10;13.30;;;5.70;99.90;;;;;;4945258;28;20247;-76
2021/03/01 12:12:24;;;;;;;20.23;12.73;;;5.60;99.90;;;;;;4950178;28;20256;-75
2021/03/01 12:14:50;;;;;;;20.97;14.00;;;5.50;99.90;;;;;;4950863;28;20701;-75
2021/03/01 12:17:17;;;;;;;18.00;12.67;;;5.50;99.90;;;;;;4951010;28;20662;-75
2021/03/01 12:19:44;;;;;;;21.97;13.37;;;5.50;99.90;;;;;;4946756;28;20325;-72
2021/03/01 12:22:10;;;;;;;19.17;13.27;;;5.40;99.90;;;;;;4948380;28;20209;-73
2021/03/01 12:24:37;;;;;;;21.63;14.40;;;5.40;99.90;;;;;;4953828;28;20220;-75
2021/03/01 12:27:04;;;;;;;22.30;13.83;;;5.30;99.90;;;;;;4945774;29;20208;-75
2021/03/01 12:29:32;;;;;;;19.27;13.97;;;5.30;99.90;;;;;;4945671;28;20244;-74
2021/03/01 12:31:59;;;;;;;18.97;13.33;;;5.30;99.90;;;;;;4948825;29;20214;-73
2021/03/01 12:34:25;;;;;;;20.33;13.17;;;5.30;99.90;;;;;;4938573;29;20328;-72
2021/03/01 12:36:54;;;;;;;19.13;13.03;;;5.30;99.90;;;;;;4939619;28;20328;-72
2021/03/01 12:39:21;;;;;;;21.20;13.33;;;5.30;99.90;;;;;;4940407;28;20209;-71
2021/03/01 12:41:47;;;;;;;16.80;12.40;;;5.30;99.90;;;;;;4944991;28;20219;-73
2021/03/01 12:44:14;;;;;;;21.33;12.90;;;5.30;99.90;;;;;;4951656;28;20757;-72
2021/03/01 12:46:42;;;;;;;17.70;12.43;;;5.30;99.90;;;;;;4948904;28;20585;-74
2021/03/01 12:49:08;;;;;;;19.93;12.30;;;5.30;99.90;;;;;;4941437;28;20268;-73
2021/03/01 12:51:35;;;;;;;19.50;13.00;;;5.30;99.90;;;;;;4952799;28;20244;-74
2021/03/01 12:54:02;;;;;;;20.03;12.93;;;5.30;99.90;;;;;;4947736;28;20732;-72